sensor_id;sensor_type;location;lat;lon;timestamp;P1;durP1;ratioP1;P2;durP2;ratioP2
42988;SDS011;28622;43.716;20.668;2022-08-25T00:03:48;6.50;;;2.60;;
42988;SDS011;28622;43.716;20.668;2022-08-25T00:06:14;2.97;;;1.73;;
42988;SDS011;28622;43.716;20.668;2022-08-25T00:08:40;3.03;;;1.83;;
42988;SDS011;28622;43.716;20.668;2022-08-25T00:11:09;4.55;;;1.95;;
42988;SDS011;28622;43.716;20.668;2022-08-25T00:13:39;4.10;;;2.25;;
42988;SDS011;28622;43.716;20.668;2022-08-25T00:16:08;3.50;;;1.75;;
42988;SDS011;28622;43.716;20.668;2022-08-25T00:18:36;4.30;;;1.75;;
42988;SDS011;28622;43.716;20.668;2022-08-25T00:21:05;3.78;;;2.08;;
42988;SDS011;28622;43.716;20.668;2022-08-25T00:23:32;3.78;;;2.17;;
42988;SDS011;28622;43.716;20.668;2022-08-25T00:25:58;3.80;;;1.98;;
42988;SDS011;28622;43.716;20.668;2022-08-25T00:28:25;4.90;;;1.98;;
42988;SDS011;28622;43.716;20.668;2022-08-25T00:30:51;5.57;;;2.30;;
42988;SDS011;28622;43.716;20.668;2022-08-25T00:33:17;3.38;;;1.83;;
42988;SDS011;28622;43.716;20.668;2022-08-25T00:35:43;5.53;;;1.88;;
42988;SDS011;28622;43.716;20.668;2022-08-25T00:38:10;5.20;;;2.17;;
42988;SDS011;28622;43.716;20.668;2022-08-25T00:40:37;4.35;;;2.28;;
42988;SDS011;28622;43.716;20.668;2022-08-25T00:43:04;4.38;;;2.45;;
42988;SDS011;28622;43.716;20.668;2022-08-25T00:45:32;3.50;;;2.10;;
42988;SDS011;28622;43.716;20.668;2022-08-25T00:47:58;5.68;;;2.25;;
42988;SDS011;28622;43.716;20.668;2022-08-25T00:50:25;4.47;;;2.38;;
42988;SDS011;28622;43.716;20.668;2022-08-25T00:52:53;4.43;;;2.30;;
42988;SDS011;28622;43.716;20.668;2022-08-25T00:55:24;3.55;;;1.90;;
42988;SDS011;28622;43.716;20.668;2022-08-25T00:57:56;2.85;;;1.85;;
42988;SDS011;28622;43.716;20.668;2022-08-25T01:00:40;3.85;;;2.08;;
42988;SDS011;28622;43.716;20.668;2022-08-25T01:03:09;3.20;;;2.03;;
42988;SDS011;28622;43.716;20.668;2022-08-25T01:05:35;3.53;;;2.10;;
42988;SDS011;28622;43.716;20.668;2022-08-25T01:08:02;2.85;;;2.00;;
42988;SDS011;28622;43.716;20.668;2022-08-25T01:10:31;2.20;;;1.63;;
42988;SDS011;28622;43.716;20.668;2022-08-25T01:13:13;3.70;;;2.22;;
42988;SDS011;28622;43.716;20.668;2022-08-25T01:15:46;5.97;;;2.33;;
42988;SDS011;28622;43.716;20.668;2022-08-25T01:18:14;2.97;;;2.00;;
42988;SDS011;28622;43.716;20.668;2022-08-25T01:20:40;3.55;;;1.98;;
42988;SDS011;28622;43.716;20.668;2022-08-25T01:23:06;2.58;;;1.73;;
42988;SDS011;28622;43.716;20.668;2022-08-25T01:25:49;3.80;;;2.03;;
42988;SDS011;28622;43.716;20.668;2022-08-25T01:28:35;5.05;;;2.45;;
42988;SDS011;28622;43.716;20.668;2022-08-25T01:31:01;4.28;;;2.15;;
42988;SDS011;28622;43.716;20.668;2022-08-25T01:33:30;3.17;;;1.90;;
42988;SDS011;28622;43.716;20.668;2022-08-25T01:35:55;5.68;;;2.30;;
42988;SDS011;28622;43.716;20.668;2022-08-25T01:38:21;4.10;;;2.20;;
42988;SDS011;28622;43.716;20.668;2022-08-25T01:40:47;4.80;;;2.15;;
42988;SDS011;28622;43.716;20.668;2022-08-25T01:45:40;4.65;;;2.20;;
42988;SDS011;28622;43.716;20.668;2022-08-25T01:48:09;3.08;;;2.00;;
42988;SDS011;28622;43.716;20.668;2022-08-25T01:50:36;2.95;;;1.73;;
42988;SDS011;28622;43.716;20.668;2022-08-25T01:55:44;5.43;;;1.80;;
42988;SDS011;28622;43.716;20.668;2022-08-25T01:58:20;4.03;;;2.03;;
42988;SDS011;28622;43.716;20.668;2022-08-25T02:00:48;4.35;;;1.88;;
42988;SDS011;28622;43.716;20.668;2022-08-25T02:03:16;5.28;;;2.58;;
42988;SDS011;28622;43.716;20.668;2022-08-25T02:05:42;5.10;;;1.92;;
42988;SDS011;28622;43.716;20.668;2022-08-25T02:08:09;5.75;;;2.50;;
42988;SDS011;28622;43.716;20.668;2022-08-25T02:10:36;5.63;;;2.47;;
42988;SDS011;28622;43.716;20.668;2022-08-25T02:13:03;1.95;;;1.58;;
42988;SDS011;28622;43.716;20.668;2022-08-25T02:15:30;5.72;;;2.38;;
42988;SDS011;28622;43.716;20.668;2022-08-25T02:17:56;3.53;;;1.83;;
42988;SDS011;28622;43.716;20.668;2022-08-25T02:20:22;3.92;;;1.98;;
42988;SDS011;28622;43.716;20.668;2022-08-25T02:22:49;4.22;;;2.30;;
42988;SDS011;28622;43.716;20.668;2022-08-25T02:25:15;4.45;;;2.17;;
42988;SDS011;28622;43.716;20.668;2022-08-25T02:27:42;5.28;;;2.35;;
42988;SDS011;28622;43.716;20.668;2022-08-25T02:30:08;4.70;;;1.98;;
42988;SDS011;28622;43.716;20.668;2022-08-25T02:32:34;3.90;;;1.73;;
42988;SDS011;28622;43.716;20.668;2022-08-25T02:35:00;5.47;;;2.70;;
42988;SDS011;28622;43.716;20.668;2022-08-25T02:37:26;4.43;;;2.33;;
42988;SDS011;28622;43.716;20.668;2022-08-25T02:39:54;4.07;;;1.95;;
42988;SDS011;28622;43.716;20.668;2022-08-25T02:42:20;3.85;;;2.17;;
42988;SDS011;28622;43.716;20.668;2022-08-25T02:44:46;4.88;;;2.45;;
42988;SDS011;28622;43.716;20.668;2022-08-25T02:47:12;4.15;;;2.25;;
42988;SDS011;28622;43.716;20.668;2022-08-25T02:49:38;4.18;;;2.10;;
42988;SDS011;28622;43.716;20.668;2022-08-25T02:52:03;3.03;;;1.73;;
42988;SDS011;28622;43.716;20.668;2022-08-25T02:54:29;6.57;;;2.15;;
42988;SDS011;28622;43.716;20.668;2022-08-25T02:56:55;7.05;;;2.90;;
42988;SDS011;28622;43.716;20.668;2022-08-25T02:59:23;5.85;;;2.55;;
42988;SDS011;28622;43.716;20.668;2022-08-25T03:01:49;4.50;;;1.70;;
42988;SDS011;28622;43.716;20.668;2022-08-25T03:04:15;4.68;;;2.42;;
42988;SDS011;28622;43.716;20.668;2022-08-25T03:06:41;3.75;;;1.63;;
42988;SDS011;28622;43.716;20.668;2022-08-25T03:09:07;5.80;;;2.05;;
42988;SDS011;28622;43.716;20.668;2022-08-25T03:11:33;5.55;;;2.72;;
42988;SDS011;28622;43.716;20.668;2022-08-25T03:14:00;5.55;;;2.30;;
42988;SDS011;28622;43.716;20.668;2022-08-25T03:16:26;3.17;;;1.88;;
42988;SDS011;28622;43.716;20.668;2022-08-25T03:18:53;4.13;;;2.20;;
42988;SDS011;28622;43.716;20.668;2022-08-25T03:21:19;5.47;;;2.13;;
42988;SDS011;28622;43.716;20.668;2022-08-25T03:23:45;6.18;;;2.97;;
42988;SDS011;28622;43.716;20.668;2022-08-25T03:26:11;3.95;;;2.30;;
42988;SDS011;28622;43.716;20.668;2022-08-25T03:28:56;5.57;;;2.42;;
42988;SDS011;28622;43.716;20.668;2022-08-25T03:31:22;3.90;;;2.00;;
42988;SDS011;28622;43.716;20.668;2022-08-25T03:33:50;5.40;;;2.13;;
42988;SDS011;28622;43.716;20.668;2022-08-25T03:36:16;4.80;;;2.50;;
42988;SDS011;28622;43.716;20.668;2022-08-25T03:38:41;6.18;;;2.15;;
42988;SDS011;28622;43.716;20.668;2022-08-25T03:41:14;3.75;;;2.25;;
42988;SDS011;28622;43.716;20.668;2022-08-25T03:43:44;3.90;;;2.15;;
42988;SDS011;28622;43.716;20.668;2022-08-25T03:46:24;8.52;;;3.75;;
42988;SDS011;28622;43.716;20.668;2022-08-25T03:48:55;7.95;;;3.55;;
42988;SDS011;28622;43.716;20.668;2022-08-25T03:51:22;5.82;;;2.95;;
42988;SDS011;28622;43.716;20.668;2022-08-25T03:53:53;5.53;;;2.55;;
42988;SDS011;28622;43.716;20.668;2022-08-25T03:56:19;15.38;;;2.95;;
42988;SDS011;28622;43.716;20.668;2022-08-25T03:58:45;3.78;;;2.53;;
42988;SDS011;28622;43.716;20.668;2022-08-25T04:01:12;6.88;;;2.35;;
42988;SDS011;28622;43.716;20.668;2022-08-25T04:03:38;4.05;;;2.22;;
42988;SDS011;28622;43.716;20.668;2022-08-25T04:06:04;3.50;;;2.13;;
42988;SDS011;28622;43.716;20.668;2022-08-25T04:08:31;5.07;;;2.40;;
42988;SDS011;28622;43.716;20.668;2022-08-25T04:10:57;5.43;;;2.63;;
42988;SDS011;28622;43.716;20.668;2022-08-25T04:13:24;4.72;;;2.30;;
42988;SDS011;28622;43.716;20.668;2022-08-25T04:15:50;5.85;;;3.42;;
42988;SDS011;28622;43.716;20.668;2022-08-25T04:18:15;5.60;;;1.77;;
42988;SDS011;28622;43.716;20.668;2022-08-25T04:20:41;5.82;;;2.65;;
42988;SDS011;28622;43.716;20.668;2022-08-25T04:23:08;4.30;;;2.65;;
42988;SDS011;28622;43.716;20.668;2022-08-25T04:25:38;5.68;;;2.83;;
42988;SDS011;28622;43.716;20.668;2022-08-25T04:28:06;5.13;;;2.42;;
42988;SDS011;28622;43.716;20.668;2022-08-25T04:30:33;4.22;;;2.55;;
42988;SDS011;28622;43.716;20.668;2022-08-25T04:32:59;4.82;;;2.80;;
42988;SDS011;28622;43.716;20.668;2022-08-25T04:35:25;6.35;;;3.33;;
42988;SDS011;28622;43.716;20.668;2022-08-25T04:37:50;4.00;;;2.28;;
42988;SDS011;28622;43.716;20.668;2022-08-25T04:40:16;4.57;;;2.90;;
42988;SDS011;28622;43.716;20.668;2022-08-25T04:42:42;5.70;;;3.00;;
42988;SDS011;28622;43.716;20.668;2022-08-25T04:45:09;5.57;;;2.42;;
42988;SDS011;28622;43.716;20.668;2022-08-25T04:47:35;5.72;;;2.72;;
42988;SDS011;28622;43.716;20.668;2022-08-25T04:50:03;5.35;;;2.70;;
42988;SDS011;28622;43.716;20.668;2022-08-25T04:52:32;5.03;;;2.42;;
42988;SDS011;28622;43.716;20.668;2022-08-25T04:54:58;6.35;;;2.85;;
42988;SDS011;28622;43.716;20.668;2022-08-25T04:57:24;6.10;;;3.00;;
42988;SDS011;28622;43.716;20.668;2022-08-25T04:59:50;3.80;;;2.40;;
42988;SDS011;28622;43.716;20.668;2022-08-25T05:02:16;4.55;;;2.50;;
42988;SDS011;28622;43.716;20.668;2022-08-25T05:04:43;5.57;;;3.00;;
42988;SDS011;28622;43.716;20.668;2022-08-25T05:07:09;7.45;;;3.50;;
42988;SDS011;28622;43.716;20.668;2022-08-25T05:09:35;4.72;;;2.65;;
42988;SDS011;28622;43.716;20.668;2022-08-25T05:12:02;4.15;;;2.38;;
42988;SDS011;28622;43.716;20.668;2022-08-25T05:14:28;5.57;;;2.55;;
42988;SDS011;28622;43.716;20.668;2022-08-25T05:16:54;4.45;;;2.85;;
42988;SDS011;28622;43.716;20.668;2022-08-25T05:19:20;7.65;;;3.88;;
42988;SDS011;28622;43.716;20.668;2022-08-25T05:21:48;6.60;;;2.78;;
42988;SDS011;28622;43.716;20.668;2022-08-25T05:24:13;6.18;;;3.00;;
42988;SDS011;28622;43.716;20.668;2022-08-25T05:26:40;5.70;;;2.60;;
42988;SDS011;28622;43.716;20.668;2022-08-25T05:29:06;6.68;;;3.47;;
42988;SDS011;28622;43.716;20.668;2022-08-25T05:31:32;7.30;;;2.85;;
42988;SDS011;28622;43.716;20.668;2022-08-25T05:33:59;5.65;;;2.45;;
42988;SDS011;28622;43.716;20.668;2022-08-25T05:36:30;4.60;;;2.35;;
42988;SDS011;28622;43.716;20.668;2022-08-25T05:38:57;5.70;;;2.67;;
42988;SDS011;28622;43.716;20.668;2022-08-25T05:41:24;6.03;;;2.92;;
42988;SDS011;28622;43.716;20.668;2022-08-25T05:43:53;6.40;;;3.08;;
42988;SDS011;28622;43.716;20.668;2022-08-25T05:46:19;4.53;;;2.55;;
42988;SDS011;28622;43.716;20.668;2022-08-25T05:48:46;5.93;;;2.80;;
42988;SDS011;28622;43.716;20.668;2022-08-25T05:51:13;5.15;;;2.53;;
42988;SDS011;28622;43.716;20.668;2022-08-25T05:53:41;4.93;;;2.55;;
42988;SDS011;28622;43.716;20.668;2022-08-25T05:56:08;5.57;;;2.50;;
42988;SDS011;28622;43.716;20.668;2022-08-25T05:58:35;9.77;;;2.75;;
42988;SDS011;28622;43.716;20.668;2022-08-25T06:01:03;5.05;;;2.78;;
42988;SDS011;28622;43.716;20.668;2022-08-25T06:03:48;5.57;;;2.85;;
42988;SDS011;28622;43.716;20.668;2022-08-25T06:06:17;5.55;;;2.33;;
42988;SDS011;28622;43.716;20.668;2022-08-25T06:08:43;4.53;;;2.50;;
42988;SDS011;28622;43.716;20.668;2022-08-25T06:11:09;5.43;;;3.00;;
42988;SDS011;28622;43.716;20.668;2022-08-25T06:13:36;4.88;;;2.50;;
42988;SDS011;28622;43.716;20.668;2022-08-25T06:16:03;5.13;;;2.65;;
42988;SDS011;28622;43.716;20.668;2022-08-25T06:18:29;4.57;;;2.88;;
42988;SDS011;28622;43.716;20.668;2022-08-25T06:20:54;5.60;;;2.80;;
42988;SDS011;28622;43.716;20.668;2022-08-25T06:23:20;7.47;;;3.10;;
42988;SDS011;28622;43.716;20.668;2022-08-25T06:25:49;4.43;;;2.85;;
42988;SDS011;28622;43.716;20.668;2022-08-25T06:28:16;3.67;;;2.33;;
42988;SDS011;28622;43.716;20.668;2022-08-25T06:30:43;5.50;;;2.88;;
42988;SDS011;28622;43.716;20.668;2022-08-25T06:33:09;6.53;;;2.72;;
42988;SDS011;28622;43.716;20.668;2022-08-25T06:35:35;3.78;;;2.40;;
42988;SDS011;28622;43.716;20.668;2022-08-25T06:38:02;4.20;;;2.35;;
42988;SDS011;28622;43.716;20.668;2022-08-25T06:40:28;6.93;;;3.15;;
42988;SDS011;28622;43.716;20.668;2022-08-25T06:42:53;4.88;;;2.63;;
42988;SDS011;28622;43.716;20.668;2022-08-25T06:45:19;4.60;;;2.65;;
42988;SDS011;28622;43.716;20.668;2022-08-25T06:47:46;4.45;;;2.63;;
42988;SDS011;28622;43.716;20.668;2022-08-25T06:50:12;5.85;;;3.28;;
42988;SDS011;28622;43.716;20.668;2022-08-25T06:52:38;3.80;;;2.70;;
42988;SDS011;28622;43.716;20.668;2022-08-25T06:55:04;5.97;;;3.22;;
42988;SDS011;28622;43.716;20.668;2022-08-25T06:57:33;5.07;;;3.05;;
42988;SDS011;28622;43.716;20.668;2022-08-25T07:00:00;6.00;;;2.95;;
42988;SDS011;28622;43.716;20.668;2022-08-25T07:02:28;5.90;;;3.33;;
42988;SDS011;28622;43.716;20.668;2022-08-25T07:04:54;6.75;;;3.15;;
42988;SDS011;28622;43.716;20.668;2022-08-25T07:07:20;6.32;;;3.28;;
42988;SDS011;28622;43.716;20.668;2022-08-25T07:09:46;5.32;;;3.03;;
42988;SDS011;28622;43.716;20.668;2022-08-25T07:12:12;6.90;;;3.10;;
42988;SDS011;28622;43.716;20.668;2022-08-25T07:14:38;5.55;;;2.75;;
42988;SDS011;28622;43.716;20.668;2022-08-25T07:17:03;8.38;;;3.45;;
42988;SDS011;28622;43.716;20.668;2022-08-25T07:19:29;9.55;;;3.53;;
42988;SDS011;28622;43.716;20.668;2022-08-25T07:21:55;6.25;;;2.65;;
42988;SDS011;28622;43.716;20.668;2022-08-25T07:24:21;5.13;;;2.97;;
42988;SDS011;28622;43.716;20.668;2022-08-25T07:26:48;8.23;;;3.63;;
42988;SDS011;28622;43.716;20.668;2022-08-25T07:29:18;7.20;;;3.50;;
42988;SDS011;28622;43.716;20.668;2022-08-25T07:31:49;6.53;;;3.35;;
42988;SDS011;28622;43.716;20.668;2022-08-25T07:34:15;11.70;;;4.40;;
42988;SDS011;28622;43.716;20.668;2022-08-25T07:37:00;6.70;;;3.50;;
42988;SDS011;28622;43.716;20.668;2022-08-25T07:39:28;6.10;;;3.30;;
42988;SDS011;28622;43.716;20.668;2022-08-25T07:41:54;5.18;;;2.97;;
42988;SDS011;28622;43.716;20.668;2022-08-25T07:44:20;9.68;;;3.53;;
42988;SDS011;28622;43.716;20.668;2022-08-25T07:46:46;5.25;;;2.83;;
42988;SDS011;28622;43.716;20.668;2022-08-25T07:49:13;5.43;;;3.10;;
42988;SDS011;28622;43.716;20.668;2022-08-25T07:51:39;5.90;;;2.83;;
42988;SDS011;28622;43.716;20.668;2022-08-25T07:54:05;6.82;;;3.10;;
42988;SDS011;28622;43.716;20.668;2022-08-25T07:56:31;5.97;;;2.70;;
42988;SDS011;28622;43.716;20.668;2022-08-25T07:58:56;4.97;;;3.03;;
42988;SDS011;28622;43.716;20.668;2022-08-25T08:01:23;5.72;;;2.97;;
42988;SDS011;28622;43.716;20.668;2022-08-25T08:03:49;4.97;;;2.67;;
42988;SDS011;28622;43.716;20.668;2022-08-25T08:06:17;5.03;;;2.22;;
42988;SDS011;28622;43.716;20.668;2022-08-25T08:08:46;5.25;;;3.25;;
42988;SDS011;28622;43.716;20.668;2022-08-25T08:11:17;5.70;;;3.25;;
42988;SDS011;28622;43.716;20.668;2022-08-25T08:13:50;5.20;;;2.83;;
42988;SDS011;28622;43.716;20.668;2022-08-25T08:16:18;5.97;;;2.88;;
42988;SDS011;28622;43.716;20.668;2022-08-25T08:18:46;5.28;;;2.42;;
42988;SDS011;28622;43.716;20.668;2022-08-25T08:21:21;6.90;;;2.50;;
42988;SDS011;28622;43.716;20.668;2022-08-25T08:23:50;5.53;;;2.85;;
42988;SDS011;28622;43.716;20.668;2022-08-25T08:26:18;4.53;;;2.50;;
42988;SDS011;28622;43.716;20.668;2022-08-25T08:28:44;5.10;;;2.63;;
42988;SDS011;28622;43.716;20.668;2022-08-25T08:31:10;4.78;;;2.65;;
42988;SDS011;28622;43.716;20.668;2022-08-25T08:33:37;4.20;;;2.30;;
42988;SDS011;28622;43.716;20.668;2022-08-25T08:36:04;4.28;;;2.85;;
42988;SDS011;28622;43.716;20.668;2022-08-25T08:38:32;5.45;;;2.95;;
42988;SDS011;28622;43.716;20.668;2022-08-25T08:41:02;6.35;;;3.08;;
42988;SDS011;28622;43.716;20.668;2022-08-25T08:43:48;6.47;;;2.70;;
42988;SDS011;28622;43.716;20.668;2022-08-25T08:46:22;4.82;;;2.33;;
42988;SDS011;28622;43.716;20.668;2022-08-25T08:49:04;5.22;;;2.88;;
42988;SDS011;28622;43.716;20.668;2022-08-25T08:51:41;6.47;;;3.38;;
42988;SDS011;28622;43.716;20.668;2022-08-25T08:54:18;5.47;;;2.72;;
42988;SDS011;28622;43.716;20.668;2022-08-25T08:56:49;5.13;;;2.28;;
42988;SDS011;28622;43.716;20.668;2022-08-25T08:59:28;6.60;;;2.40;;
42988;SDS011;28622;43.716;20.668;2022-08-25T09:02:03;5.85;;;2.80;;
42988;SDS011;28622;43.716;20.668;2022-08-25T09:04:40;6.57;;;3.28;;
42988;SDS011;28622;43.716;20.668;2022-08-25T09:07:13;6.25;;;2.75;;
42988;SDS011;28622;43.716;20.668;2022-08-25T09:09:46;6.80;;;3.38;;
42988;SDS011;28622;43.716;20.668;2022-08-25T09:12:14;7.43;;;3.05;;
42988;SDS011;28622;43.716;20.668;2022-08-25T09:17:52;5.80;;;2.33;;
42988;SDS011;28622;43.716;20.668;2022-08-25T09:25:51;4.93;;;3.00;;
42988;SDS011;28622;43.716;20.668;2022-08-25T09:28:31;8.68;;;3.72;;
42988;SDS011;28622;43.716;20.668;2022-08-25T09:31:12;5.35;;;2.83;;
42988;SDS011;28622;43.716;20.668;2022-08-25T09:33:44;6.22;;;3.22;;
42988;SDS011;28622;43.716;20.668;2022-08-25T09:36:10;7.30;;;3.30;;
42988;SDS011;28622;43.716;20.668;2022-08-25T09:38:35;4.45;;;2.58;;
42988;SDS011;28622;43.716;20.668;2022-08-25T09:41:01;6.20;;;2.80;;
42988;SDS011;28622;43.716;20.668;2022-08-25T09:51:18;6.70;;;3.17;;
42988;SDS011;28622;43.716;20.668;2022-08-25T09:53:53;5.63;;;2.80;;
42988;SDS011;28622;43.716;20.668;2022-08-25T09:56:23;5.07;;;2.63;;
42988;SDS011;28622;43.716;20.668;2022-08-25T09:58:51;8.20;;;3.80;;
42988;SDS011;28622;43.716;20.668;2022-08-25T10:01:22;7.18;;;3.70;;
42988;SDS011;28622;43.716;20.668;2022-08-25T10:04:02;4.90;;;2.92;;
42988;SDS011;28622;43.716;20.668;2022-08-25T10:06:34;15.00;;;3.95;;
42988;SDS011;28622;43.716;20.668;2022-08-25T10:09:09;4.30;;;2.38;;
42988;SDS011;28622;43.716;20.668;2022-08-25T10:11:46;7.70;;;3.58;;
42988;SDS011;28622;43.716;20.668;2022-08-25T10:16:42;5.25;;;2.55;;
42988;SDS011;28622;43.716;20.668;2022-08-25T10:19:13;6.28;;;2.83;;
42988;SDS011;28622;43.716;20.668;2022-08-25T10:24:48;4.55;;;2.88;;
42988;SDS011;28622;43.716;20.668;2022-08-25T10:30:07;5.60;;;3.17;;
42988;SDS011;28622;43.716;20.668;2022-08-25T10:32:59;6.10;;;3.13;;
42988;SDS011;28622;43.716;20.668;2022-08-25T10:35:39;5.28;;;2.67;;
42988;SDS011;28622;43.716;20.668;2022-08-25T10:40:56;6.95;;;3.50;;
42988;SDS011;28622;43.716;20.668;2022-08-25T10:46:05;6.07;;;3.50;;
42988;SDS011;28622;43.716;20.668;2022-08-25T10:48:40;6.40;;;3.22;;
42988;SDS011;28622;43.716;20.668;2022-08-25T10:56:47;7.03;;;3.33;;
42988;SDS011;28622;43.716;20.668;2022-08-25T11:09:42;9.63;;;4.53;;
42988;SDS011;28622;43.716;20.668;2022-08-25T11:14:41;9.48;;;4.53;;
42988;SDS011;28622;43.716;20.668;2022-08-25T11:17:35;8.60;;;4.38;;
42988;SDS011;28622;43.716;20.668;2022-08-25T11:20:06;8.00;;;3.95;;
42988;SDS011;28622;43.716;20.668;2022-08-25T11:27:48;8.98;;;3.58;;
42988;SDS011;28622;43.716;20.668;2022-08-25T11:30:21;7.00;;;3.47;;
42988;SDS011;28622;43.716;20.668;2022-08-25T11:32:49;10.77;;;4.25;;
42988;SDS011;28622;43.716;20.668;2022-08-25T11:35:18;7.15;;;2.90;;
42988;SDS011;28622;43.716;20.668;2022-08-25T11:51:50;6.55;;;3.20;;
42988;SDS011;28622;43.716;20.668;2022-08-25T11:54:25;7.45;;;4.15;;
42988;SDS011;28622;43.716;20.668;2022-08-25T11:57:09;7.32;;;3.53;;
42988;SDS011;28622;43.716;20.668;2022-08-25T12:04:59;5.72;;;3.13;;
42988;SDS011;28622;43.716;20.668;2022-08-25T12:07:56;5.32;;;3.17;;
42988;SDS011;28622;43.716;20.668;2022-08-25T12:10:22;6.20;;;2.95;;
42988;SDS011;28622;43.716;20.668;2022-08-25T12:12:56;6.30;;;3.78;;
42988;SDS011;28622;43.716;20.668;2022-08-25T12:16:30;6.85;;;3.33;;
42988;SDS011;28622;43.716;20.668;2022-08-25T12:23:38;6.30;;;2.97;;
42988;SDS011;28622;43.716;20.668;2022-08-25T12:36:53;8.80;;;3.33;;
42988;SDS011;28622;43.716;20.668;2022-08-25T12:39:36;7.03;;;3.20;;
42988;SDS011;28622;43.716;20.668;2022-08-25T12:47:50;6.07;;;3.15;;
42988;SDS011;28622;43.716;20.668;2022-08-25T12:52:51;6.03;;;3.30;;
42988;SDS011;28622;43.716;20.668;2022-08-25T12:55:17;9.30;;;3.75;;
42988;SDS011;28622;43.716;20.668;2022-08-25T12:57:55;5.55;;;3.38;;
42988;SDS011;28622;43.716;20.668;2022-08-25T13:00:24;6.90;;;3.42;;
42988;SDS011;28622;43.716;20.668;2022-08-25T13:02:59;4.28;;;2.60;;
42988;SDS011;28622;43.716;20.668;2022-08-25T13:08:48;6.22;;;2.97;;
42988;SDS011;28622;43.716;20.668;2022-08-25T13:11:45;5.68;;;3.10;;
42988;SDS011;28622;43.716;20.668;2022-08-25T13:14:39;9.57;;;3.47;;
42988;SDS011;28622;43.716;20.668;2022-08-25T13:17:07;6.13;;;3.08;;
42988;SDS011;28622;43.716;20.668;2022-08-25T13:19:34;4.68;;;2.80;;
42988;SDS011;28622;43.716;20.668;2022-08-25T13:22:14;7.25;;;3.30;;
42988;SDS011;28622;43.716;20.668;2022-08-25T13:24:42;6.10;;;2.92;;
42988;SDS011;28622;43.716;20.668;2022-08-25T13:27:18;8.07;;;3.78;;
42988;SDS011;28622;43.716;20.668;2022-08-25T13:29:58;6.05;;;3.08;;
42988;SDS011;28622;43.716;20.668;2022-08-25T13:32:28;6.18;;;3.05;;
42988;SDS011;28622;43.716;20.668;2022-08-25T13:38:11;4.22;;;2.67;;
42988;SDS011;28622;43.716;20.668;2022-08-25T13:40:38;5.80;;;3.67;;
42988;SDS011;28622;43.716;20.668;2022-08-25T13:43:06;6.68;;;3.45;;
42988;SDS011;28622;43.716;20.668;2022-08-25T13:45:39;7.13;;;3.40;;
42988;SDS011;28622;43.716;20.668;2022-08-25T13:48:11;6.97;;;3.35;;
42988;SDS011;28622;43.716;20.668;2022-08-25T13:50:38;5.90;;;3.03;;
42988;SDS011;28622;43.716;20.668;2022-08-25T13:53:13;6.30;;;3.75;;
42988;SDS011;28622;43.716;20.668;2022-08-25T13:55:50;4.25;;;2.63;;
42988;SDS011;28622;43.716;20.668;2022-08-25T13:58:22;6.82;;;3.53;;
42988;SDS011;28622;43.716;20.668;2022-08-25T14:03:40;6.47;;;3.33;;
42988;SDS011;28622;43.716;20.668;2022-08-25T14:08:40;9.43;;;3.10;;
42988;SDS011;28622;43.716;20.668;2022-08-25T14:13:38;7.40;;;3.17;;
42988;SDS011;28622;43.716;20.668;2022-08-25T14:16:17;5.60;;;3.33;;
42988;SDS011;28622;43.716;20.668;2022-08-25T14:18:50;7.40;;;4.00;;
42988;SDS011;28622;43.716;20.668;2022-08-25T14:21:21;6.88;;;3.67;;
42988;SDS011;28622;43.716;20.668;2022-08-25T14:23:55;16.90;;;6.43;;
42988;SDS011;28622;43.716;20.668;2022-08-25T14:26:21;10.48;;;5.10;;
42988;SDS011;28622;43.716;20.668;2022-08-25T14:28:48;8.88;;;4.45;;
42988;SDS011;28622;43.716;20.668;2022-08-25T14:31:24;5.82;;;3.63;;
42988;SDS011;28622;43.716;20.668;2022-08-25T14:33:57;7.32;;;3.35;;
42988;SDS011;28622;43.716;20.668;2022-08-25T14:36:24;6.90;;;3.30;;
42988;SDS011;28622;43.716;20.668;2022-08-25T14:38:50;9.13;;;3.60;;
42988;SDS011;28622;43.716;20.668;2022-08-25T14:41:18;10.05;;;4.05;;
42988;SDS011;28622;43.716;20.668;2022-08-25T14:43:44;7.70;;;3.90;;
42988;SDS011;28622;43.716;20.668;2022-08-25T14:46:30;7.40;;;3.80;;
42988;SDS011;28622;43.716;20.668;2022-08-25T14:48:59;5.43;;;2.97;;
42988;SDS011;28622;43.716;20.668;2022-08-25T14:51:27;7.55;;;3.50;;
42988;SDS011;28622;43.716;20.668;2022-08-25T14:53:58;4.70;;;3.22;;
42988;SDS011;28622;43.716;20.668;2022-08-25T14:56:26;5.53;;;3.08;;
42988;SDS011;28622;43.716;20.668;2022-08-25T14:58:52;5.53;;;3.05;;
42988;SDS011;28622;43.716;20.668;2022-08-25T15:01:19;5.55;;;3.17;;
42988;SDS011;28622;43.716;20.668;2022-08-25T15:03:46;5.93;;;3.15;;
42988;SDS011;28622;43.716;20.668;2022-08-25T15:06:15;6.32;;;3.10;;
42988;SDS011;28622;43.716;20.668;2022-08-25T15:08:42;8.00;;;3.30;;
42988;SDS011;28622;43.716;20.668;2022-08-25T15:11:26;12.63;;;3.80;;
42988;SDS011;28622;43.716;20.668;2022-08-25T15:13:53;8.15;;;3.85;;
42988;SDS011;28622;43.716;20.668;2022-08-25T15:16:22;8.23;;;3.20;;
42988;SDS011;28622;43.716;20.668;2022-08-25T15:18:50;10.00;;;2.80;;
42988;SDS011;28622;43.716;20.668;2022-08-25T15:21:17;6.30;;;3.40;;
42988;SDS011;28622;43.716;20.668;2022-08-25T15:23:42;8.52;;;2.95;;
42988;SDS011;28622;43.716;20.668;2022-08-25T15:26:10;4.68;;;2.63;;
42988;SDS011;28622;43.716;20.668;2022-08-25T15:28:38;5.90;;;2.83;;
42988;SDS011;28622;43.716;20.668;2022-08-25T15:31:07;5.25;;;2.90;;
42988;SDS011;28622;43.716;20.668;2022-08-25T15:33:33;6.10;;;3.10;;
42988;SDS011;28622;43.716;20.668;2022-08-25T15:35:58;7.28;;;2.75;;
42988;SDS011;28622;43.716;20.668;2022-08-25T15:38:24;5.03;;;2.70;;
42988;SDS011;28622;43.716;20.668;2022-08-25T15:40:50;6.57;;;3.00;;
42988;SDS011;28622;43.716;20.668;2022-08-25T15:43:16;3.88;;;2.63;;
42988;SDS011;28622;43.716;20.668;2022-08-25T15:45:41;7.80;;;3.85;;
42988;SDS011;28622;43.716;20.668;2022-08-25T15:48:07;5.85;;;3.15;;
42988;SDS011;28622;43.716;20.668;2022-08-25T15:50:33;7.28;;;3.03;;
42988;SDS011;28622;43.716;20.668;2022-08-25T15:52:59;9.38;;;3.75;;
42988;SDS011;28622;43.716;20.668;2022-08-25T15:55:24;4.18;;;2.63;;
42988;SDS011;28622;43.716;20.668;2022-08-25T15:57:51;5.07;;;2.85;;
42988;SDS011;28622;43.716;20.668;2022-08-25T16:00:17;7.75;;;3.20;;
42988;SDS011;28622;43.716;20.668;2022-08-25T16:02:43;10.82;;;3.78;;
42988;SDS011;28622;43.716;20.668;2022-08-25T16:05:09;8.13;;;4.32;;
42988;SDS011;28622;43.716;20.668;2022-08-25T16:07:35;16.08;;;4.43;;
42988;SDS011;28622;43.716;20.668;2022-08-25T16:10:02;4.70;;;2.85;;
42988;SDS011;28622;43.716;20.668;2022-08-25T16:12:29;5.05;;;3.17;;
42988;SDS011;28622;43.716;20.668;2022-08-25T16:14:55;6.47;;;3.33;;
42988;SDS011;28622;43.716;20.668;2022-08-25T16:17:21;6.05;;;3.40;;
42988;SDS011;28622;43.716;20.668;2022-08-25T16:19:47;5.47;;;2.92;;
42988;SDS011;28622;43.716;20.668;2022-08-25T16:22:13;5.60;;;3.42;;
42988;SDS011;28622;43.716;20.668;2022-08-25T16:24:40;10.05;;;3.38;;
42988;SDS011;28622;43.716;20.668;2022-08-25T16:27:09;4.90;;;2.60;;
42988;SDS011;28622;43.716;20.668;2022-08-25T16:29:36;6.45;;;3.45;;
42988;SDS011;28622;43.716;20.668;2022-08-25T16:32:04;5.47;;;3.88;;
42988;SDS011;28622;43.716;20.668;2022-08-25T16:34:31;5.35;;;2.85;;
42988;SDS011;28622;43.716;20.668;2022-08-25T16:36:58;6.40;;;3.33;;
42988;SDS011;28622;43.716;20.668;2022-08-25T16:39:24;5.63;;;2.88;;
42988;SDS011;28622;43.716;20.668;2022-08-25T16:41:50;8.20;;;3.95;;
42988;SDS011;28622;43.716;20.668;2022-08-25T16:44:17;6.63;;;3.40;;